Time;durP1;ratioP1;P1;durP2;ratioP2;P2;SDS_P1;SDS_P2;PMS_P1;PMS_P2;Temp;Humidity;BMP_temperature;BMP_pressure;BME280_temperature;BME280_humidity;BME280_pressure;Samples;Min_cycle;Max_cycle;Signal;HPM_P1;HPM_P2
2023/10/26 00:00:03;;;;;;;80.90;37.42;;;;;;;11.32;100.00;99718.56;5265125;28;20031;-72
2023/10/26 00:02:34;;;;;;;73.30;36.05;;;;;;;11.34;100.00;99717.31;5267184;28;20032;-71
2023/10/26 00:05:05;;;;;;;75.82;36.47;;;;;;;11.34;100.00;99721.88;5270105;28;20732;-71
2023/10/26 00:07:35;;;;;;;75.85;36.80;;;;;;;11.30;100.00;99721.44;5273236;28;20454;-71
2023/10/26 00:10:07;;;;;;;71.03;37.97;;;;;;;11.32;100.00;99715.88;5261759;28;20107;-71
2023/10/26 00:12:37;;;;;;;73.07;37.47;;;;;;;11.32;100.00;99723.94;5261325;28;20032;-71
2023/10/26 00:15:08;;;;;;;69.38;35.38;;;;;;;11.30;100.00;99723.31;5273349;28;20085;-71
2023/10/26 00:17:39;;;;;;;78.00;37.17;;;;;;;11.28;100.00;99710.06;5266007;28;20035;-71
2023/10/26 00:20:10;;;;;;;71.20;36.40;;;;;;;11.27;100.00;99702.22;5264651;28;20383;-72
2023/10/26 00:22:40;;;;;;;71.65;35.00;;;;;;;11.20;100.00;99704.88;5265707;28;20081;-72
2023/10/26 00:25:11;;;;;;;78.65;35.90;;;;;;;11.17;100.00;99701.75;5259959;28;20035;-71
2023/10/26 00:27:41;;;;;;;76.43;35.97;;;;;;;11.12;100.00;99713.91;5266014;28;20114;-72
2023/10/26 00:30:12;;;;;;;82.05;38.75;;;;;;;11.08;100.00;99709.94;5274164;28;20027;-71
2023/10/26 00:32:42;;;;;;;80.88;38.03;;;;;;;11.03;100.00;99696.28;5260781;28;20035;-71
2023/10/26 00:35:13;;;;;;;80.30;36.45;;;;;;;10.99;100.00;99707.63;5270149;28;20046;-71
2023/10/26 00:37:43;;;;;;;80.30;34.83;;;;;;;10.91;100.00;99697.88;5275547;28;20028;-72
2023/10/26 00:40:15;;;;;;;85.13;36.97;;;;;;;10.81;100.00;99706.28;5264547;28;20039;-72
2023/10/26 00:42:45;;;;;;;83.68;38.13;;;;;;;10.74;100.00;99701.88;5266373;28;20025;-71
2023/10/26 00:45:16;;;;;;;95.50;37.70;;;;;;;10.68;100.00;99694.59;5265539;28;20142;-72
2023/10/26 00:47:46;;;;;;;75.47;34.15;;;;;;;10.63;100.00;99695.19;5259072;28;20048;-71
2023/10/26 00:50:17;;;;;;;82.20;37.63;;;;;;;10.62;100.00;99699.72;5264215;28;20024;-71
2023/10/26 00:52:48;;;;;;;79.43;35.90;;;;;;;10.56;100.00;99705.88;5263870;28;20020;-71
2023/10/26 00:55:18;;;;;;;86.03;38.97;;;;;;;10.50;100.00;99703.97;5268417;28;20035;-71
2023/10/26 00:57:49;;;;;;;82.45;36.63;;;;;;;10.43;100.00;99716.47;5262383;28;20067;-71
2023/10/26 01:00:21;;;;;;;71.65;33.78;;;;;;;10.37;100.00;99711.88;5265637;28;20043;-71
2023/10/26 01:02:51;;;;;;;84.50;35.42;;;;;;;10.30;100.00;99713.69;5266420;28;20051;-70
2023/10/26 01:05:22;;;;;;;86.00;38.53;;;;;;;10.22;100.00;99721.81;5265654;28;20383;-71
2023/10/26 01:07:52;;;;;;;82.55;34.72;;;;;;;10.19;100.00;99727.53;5265375;28;20035;-71
2023/10/26 01:10:24;;;;;;;105.30;40.97;;;;;;;10.13;100.00;99732.66;5261302;28;20020;-71
2023/10/26 01:12:54;;;;;;;101.65;41.75;;;;;;;10.15;100.00;99728.97;5261231;28;20054;-71
2023/10/26 01:15:25;;;;;;;107.25;41.25;;;;;;;10.18;100.00;99723.22;5269381;28;20032;-71
2023/10/26 01:17:56;;;;;;;111.82;42.78;;;;;;;10.17;100.00;99724.25;5267196;28;20094;-71
2023/10/26 01:20:27;;;;;;;110.13;43.72;;;;;;;10.17;100.00;99718.88;5267402;28;20092;-71
2023/10/26 01:22:57;;;;;;;102.32;41.60;;;;;;;10.15;100.00;99718.25;5257917;28;20027;-71
2023/10/26 01:25:28;;;;;;;93.60;38.47;;;;;;;10.12;100.00;99720.28;5259698;28;20123;-71
2023/10/26 01:27:59;;;;;;;93.75;38.03;;;;;;;10.08;100.00;99724.34;5266326;28;20020;-71
2023/10/26 01:30:31;;;;;;;83.50;36.30;;;;;;;10.02;100.00;99719.75;5266465;28;20036;-71
2023/10/26 01:33:02;;;;;;;98.20;37.58;;;;;;;9.97;100.00;99721.34;5262290;28;20024;-71
2023/10/26 01:35:38;;;;;;;98.10;41.05;;;;;;;9.92;100.00;99732.63;5268926;28;20032;-71
2023/10/26 01:38:08;;;;;;;105.15;42.55;;;;;;;9.89;100.00;99725.00;5265562;28;20106;-71
2023/10/26 01:40:39;;;;;;;101.93;41.42;;;;;;;9.84;100.00;99720.19;5266061;28;20127;-71
2023/10/26 01:43:09;;;;;;;101.07;39.17;;;;;;;9.79;100.00;99719.09;5264097;28;20062;-71
2023/10/26 01:45:40;;;;;;;104.47;40.40;;;;;;;9.77;100.00;99716.59;5266027;28;20632;-71
2023/10/26 01:48:11;;;;;;;102.20;40.90;;;;;;;9.84;100.00;99722.88;5265561;28;20099;-71
2023/10/26 01:50:41;;;;;;;105.85;41.72;;;;;;;9.85;100.00;99721.03;5266232;28;20024;-71
2023/10/26 01:53:12;;;;;;;99.43;39.72;;;;;;;9.82;100.00;99719.53;5264754;28;20127;-71
2023/10/26 01:55:43;;;;;;;95.47;39.20;;;;;;;9.75;100.00;99715.97;5266349;28;20028;-71
2023/10/26 01:58:13;;;;;;;86.70;35.92;;;;;;;9.72;100.00;99710.16;5267727;28;20016;-71
2023/10/26 02:00:44;;;;;;;93.53;35.78;;;;;;;9.70;100.00;99704.16;5266028;28;20027;-71
2023/10/26 02:03:18;;;;;;;97.72;33.35;;;;;;;9.62;100.00;99704.25;5261410;28;20027;-71
2023/10/26 02:05:49;;;;;;;76.30;30.38;;;;;;;9.53;100.00;99699.00;5265501;28;20027;-71
2023/10/26 02:08:19;;;;;;;210.02;33.22;;;;;;;9.48;100.00;99692.56;5265895;28;20020;-71
2023/10/26 02:10:50;;;;;;;84.38;26.65;;;;;;;9.44;100.00;99699.28;5260670;28;20453;-71
2023/10/26 02:13:21;;;;;;;68.05;27.77;;;;;;;9.41;100.00;99697.00;5267129;28;20020;-71
2023/10/26 02:15:52;;;;;;;89.50;27.67;;;;;;;9.40;100.00;99696.19;5267151;28;20054;-71
2023/10/26 02:18:25;;;;;;;76.50;28.75;;;;;;;9.37;100.00;99687.69;5266967;28;20012;-71
2023/10/26 02:20:55;;;;;;;85.07;29.77;;;;;;;9.40;100.00;99679.28;5265834;28;20380;-71
2023/10/26 02:23:26;;;;;;;255.27;29.55;;;;;;;9.35;100.00;99679.84;5265850;28;20054;-71
2023/10/26 02:25:57;;;;;;;200.52;28.45;;;;;;;9.28;100.00;99682.41;5263664;28;20358;-71
2023/10/26 02:28:27;;;;;;;227.07;29.67;;;;;;;9.26;100.00;99679.13;5266153;28;20028;-71
2023/10/26 02:30:58;;;;;;;167.02;26.65;;;;;;;9.24;100.00;99669.63;5265855;28;20515;-71
2023/10/26 02:33:28;;;;;;;158.13;28.85;;;;;;;9.20;100.00;99679.03;5268308;28;20563;-71
2023/10/26 02:35:59;;;;;;;100.13;27.25;;;;;;;9.17;100.00;99684.75;5266086;28;20439;-71
2023/10/26 02:38:29;;;;;;;119.53;28.70;;;;;;;9.16;100.00;99681.25;5264705;28;20057;-71
2023/10/26 02:41:07;;;;;;;85.80;27.52;;;;;;;9.17;100.00;99680.22;5267963;28;20024;-71
2023/10/26 02:43:37;;;;;;;167.52;30.05;;;;;;;9.18;100.00;99673.84;5263774;28;20024;-71
2023/10/26 02:46:09;;;;;;;95.32;29.25;;;;;;;9.15;100.00;99684.94;5264585;28;20124;-71
2023/10/26 02:48:39;;;;;;;100.35;28.63;;;;;;;9.14;100.00;99679.78;5265883;28;20366;-71
2023/10/26 02:51:09;;;;;;;104.30;30.85;;;;;;;9.13;100.00;99678.09;5264468;28;20057;-71
2023/10/26 02:53:42;;;;;;;135.18;28.83;;;;;;;9.13;100.00;99676.25;5267803;28;20020;-71
2023/10/26 02:56:12;;;;;;;138.45;28.33;;;;;;;9.10;100.00;99671.28;5270567;28;20038;-71
2023/10/26 02:58:44;;;;;;;91.78;27.08;;;;;;;9.04;100.00;99666.69;5268710;28;20020;-71
2023/10/26 03:01:14;;;;;;;143.98;29.30;;;;;;;9.00;100.00;99662.72;5269300;28;20113;-71
2023/10/26 03:03:44;;;;;;;132.77;28.90;;;;;;;8.97;100.00;99661.22;5265227;28;20020;-71
2023/10/26 03:06:15;;;;;;;152.13;29.45;;;;;;;8.95;100.00;99665.13;5267987;28;20401;-71
2023/10/26 03:08:46;;;;;;;112.60;27.35;;;;;;;8.89;100.00;99664.00;5268507;28;20030;-70
2023/10/26 03:11:16;;;;;;;101.68;25.42;;;;;;;8.87;100.00;99659.84;5261615;28;20100;-71
2023/10/26 03:13:47;;;;;;;93.35;25.15;;;;;;;8.79;100.00;99663.44;5265105;28;20020;-71
2023/10/26 03:16:17;;;;;;;96.25;25.77;;;;;;;8.75;100.00;99678.19;5267863;28;20054;-71
2023/10/26 03:18:47;;;;;;;134.93;29.55;;;;;;;8.72;100.00;99681.22;5267463;28;20468;-71
2023/10/26 03:21:20;;;;;;;151.65;32.50;;;;;;;8.72;100.00;99671.34;5265433;28;20107;-71
2023/10/26 03:23:56;;;;;;;107.00;31.65;;;;;;;8.75;100.00;99675.53;5263703;28;20081;-70
2023/10/26 03:26:27;;;;;;;79.78;29.92;;;;;;;8.77;100.00;99668.13;5262267;28;20119;-71
2023/10/26 03:28:57;;;;;;;76.80;28.15;;;;;;;8.78;100.00;99670.63;5267159;28;20103;-71
2023/10/26 03:31:28;;;;;;;78.28;25.55;;;;;;;8.81;100.00;99658.72;5262194;28;20389;-70
2023/10/26 03:33:58;;;;;;;100.45;28.10;;;;;;;8.80;100.00;99659.75;5262830;28;20056;-71
2023/10/26 03:36:29;;;;;;;121.78;27.60;;;;;;;8.76;100.00;99667.31;5264218;28;20031;-71
2023/10/26 03:38:59;;;;;;;190.90;29.58;;;;;;;8.72;100.00;99673.19;5264663;28;20020;-71
2023/10/26 03:41:30;;;;;;;57.45;24.73;;;;;;;8.68;100.00;99669.22;5264892;28;20032;-71
2023/10/26 03:44:00;;;;;;;81.53;30.15;;;;;;;8.65;100.00;99665.09;5264129;28;20050;-71
2023/10/26 03:46:31;;;;;;;61.30;26.10;;;;;;;8.70;100.00;99664.53;5264867;28;20028;-71
2023/10/26 03:49:01;;;;;;;72.70;27.33;;;;;;;8.73;100.00;99666.84;5267095;28;20020;-70
2023/10/26 03:51:32;;;;;;;68.82;27.60;;;;;;;8.72;100.00;99657.97;5267409;28;20035;-71
2023/10/26 03:54:03;;;;;;;91.28;26.90;;;;;;;8.70;100.00;99665.38;5263392;28;20012;-70
2023/10/26 03:56:33;;;;;;;127.32;28.90;;;;;;;8.65;100.00;99659.75;5264687;28;20067;-71
2023/10/26 03:59:04;;;;;;;58.15;25.48;;;;;;;8.64;100.00;99657.25;5263105;28;20607;-71
2023/10/26 04:01:35;;;;;;;70.32;28.40;;;;;;;8.68;100.00;99650.50;5264694;28;20020;-70
2023/10/26 04:04:06;;;;;;;74.90;28.90;;;;;;;8.74;100.00;99649.81;5263628;28;20031;-70
2023/10/26 04:06:36;;;;;;;78.70;29.08;;;;;;;8.85;100.00;99653.84;5264329;28;20035;-71
2023/10/26 04:09:07;;;;;;;74.65;27.67;;;;;;;8.93;100.00;99649.22;5266196;28;20481;-70
2023/10/26 04:11:37;;;;;;;74.05;29.17;;;;;;;8.99;100.00;99643.16;5255664;28;20024;-70
2023/10/26 04:14:08;;;;;;;91.28;33.80;;;;;;;9.02;100.00;99631.25;5263505;28;20015;-71
2023/10/26 04:16:38;;;;;;;92.07;34.40;;;;;;;9.07;100.00;99631.50;5260780;28;20028;-71
2023/10/26 04:19:08;;;;;;;71.85;28.58;;;;;;;9.09;100.00;99634.84;5263584;28;20027;-71
2023/10/26 04:21:39;;;;;;;75.00;28.85;;;;;;;9.07;100.00;99628.84;5264306;28;20023;-71
2023/10/26 04:24:09;;;;;;;75.38;29.20;;;;;;;9.06;100.00;99628.00;5259380;28;20059;-70
2023/10/26 04:26:41;;;;;;;89.75;31.17;;;;;;;9.03;100.00;99631.03;5262215;28;20028;-71
2023/10/26 04:29:11;;;;;;;77.75;29.20;;;;;;;9.03;100.00;99638.25;5263457;28;20078;-71
2023/10/26 04:31:42;;;;;;;102.00;27.45;;;;;;;8.97;100.00;99633.66;5264462;28;20028;-71
2023/10/26 04:34:12;;;;;;;400.40;42.70;;;;;;;8.88;100.00;99632.06;5264749;28;20548;-70
2023/10/26 04:36:43;;;;;;;188.68;30.45;;;;;;;8.79;100.00;99634.03;5265124;28;20051;-71
2023/10/26 04:39:15;;;;;;;446.33;37.92;;;;;;;8.68;100.00;99632.63;5266867;28;20377;-71
2023/10/26 04:41:46;;;;;;;125.45;27.90;;;;;;;8.63;100.00;99623.50;5264797;28;20042;-70
2023/10/26 04:44:18;;;;;;;69.30;23.85;;;;;;;8.57;100.00;99609.03;5264646;28;20523;-71
2023/10/26 04:46:48;;;;;;;97.20;22.98;;;;;;;8.52;100.00;99606.88;5265947;28;20027;-71
2023/10/26 04:49:19;;;;;;;141.07;27.52;;;;;;;8.46;100.00;99607.63;5261872;28;20024;-71
2023/10/26 04:51:49;;;;;;;128.35;26.98;;;;;;;8.41;100.00;99607.34;5260541;28;20085;-71
2023/10/26 04:54:20;;;;;;;238.88;31.60;;;;;;;8.42;100.00;99618.88;5264177;28;20091;-71
2023/10/26 04:56:50;;;;;;;215.30;32.25;;;;;;;8.39;100.00;99613.91;5267441;28;20066;-70
2023/10/26 04:59:21;;;;;;;268.95;31.23;;;;;;;8.34;100.00;99611.75;5259397;28;20477;-70
2023/10/26 05:01:52;;;;;;;171.50;24.80;;;;;;;8.27;100.00;99614.28;5263713;28;20090;-71
2023/10/26 05:04:22;;;;;;;199.13;28.02;;;;;;;8.24;100.00;99606.66;5267826;28;20019;-70
2023/10/26 05:06:53;;;;;;;169.48;27.08;;;;;;;8.21;100.00;99608.84;5263551;28;20051;-70
2023/10/26 05:09:24;;;;;;;193.30;25.15;;;;;;;8.19;100.00;99606.38;5263180;28;20020;-70
2023/10/26 05:11:54;;;;;;;217.50;26.75;;;;;;;8.18;100.00;99598.50;5261718;28;20030;-70
2023/10/26 05:14:25;;;;;;;144.88;21.90;;;;;;;8.14;100.00;99600.75;5265808;28;20042;-71
2023/10/26 05:16:55;;;;;;;361.85;33.90;;;;;;;8.12;100.00;99604.59;5267025;28;20036;-70
2023/10/26 05:19:26;;;;;;;127.93;26.88;;;;;;;8.08;100.00;99601.44;5264197;28;20027;-70
2023/10/26 05:21:56;;;;;;;214.05;27.52;;;;;;;8.10;100.00;99599.44;5263830;28;20047;-70
2023/10/26 05:24:27;;;;;;;169.73;27.20;;;;;;;8.11;100.00;99589.56;5247512;28;20055;-70
2023/10/26 05:26:57;;;;;;;254.25;29.80;;;;;;;8.11;100.00;99585.06;5261263;28;20024;-70
2023/10/26 05:29:29;;;;;;;161.98;27.50;;;;;;;8.12;100.00;99576.03;5262356;28;20032;-70
2023/10/26 05:31:59;;;;;;;103.07;26.13;;;;;;;8.11;100.00;99577.03;5263332;28;20026;-70
2023/10/26 05:34:30;;;;;;;217.70;34.38;;;;;;;8.12;100.00;99577.88;5261543;28;20036;-70
2023/10/26 05:37:00;;;;;;;188.15;35.33;;;;;;;8.12;100.00;99569.84;5261097;28;20028;-71
2023/10/26 05:39:32;;;;;;;130.15;31.08;;;;;;;8.10;100.00;99570.06;5259565;28;20112;-70
2023/10/26 05:42:04;;;;;;;133.90;33.78;;;;;;;8.11;100.00;99565.53;5259902;28;20066;-70
2023/10/26 05:44:34;;;;;;;173.00;32.88;;;;;;;8.11;100.00;99563.69;5259477;28;20028;-70
2023/10/26 05:47:05;;;;;;;203.15;33.65;;;;;;;8.10;100.00;99561.22;5264740;28;20065;-70
2023/10/26 05:49:35;;;;;;;94.50;29.25;;;;;;;8.09;100.00;99567.56;5265200;28;20028;-70
2023/10/26 05:52:06;;;;;;;250.65;33.00;;;;;;;8.05;100.00;99559.91;5268097;28;20040;-70
2023/10/26 05:54:36;;;;;;;93.53;25.75;;;;;;;8.04;100.00;99563.59;5267169;28;20529;-70
2023/10/26 05:57:07;;;;;;;96.22;25.73;;;;;;;8.00;100.00;99564.97;5264292;28;20122;-70
2023/10/26 05:59:37;;;;;;;75.18;24.20;;;;;;;7.97;100.00;99559.97;5267225;28;20023;-70
2023/10/26 06:02:08;;;;;;;188.95;30.50;;;;;;;7.93;100.00;99564.03;5265183;28;20093;-70
2023/10/26 06:04:38;;;;;;;203.48;30.63;;;;;;;7.94;100.00;99567.53;5265478;28;20016;-70
2023/10/26 06:07:09;;;;;;;146.93;28.23;;;;;;;7.93;100.00;99564.03;5268231;28;20059;-71
2023/10/26 06:09:39;;;;;;;276.38;34.38;;;;;;;7.92;100.00;99565.03;5264457;28;20032;-70
2023/10/26 06:12:10;;;;;;;178.52;28.85;;;;;;;7.90;100.00;99558.22;5263646;28;20157;-70
2023/10/26 06:14:40;;;;;;;175.15;28.45;;;;;;;7.90;100.00;99564.38;5266803;28;20126;-70
2023/10/26 06:17:11;;;;;;;94.15;26.50;;;;;;;7.90;100.00;99560.88;5266723;28;20119;-70
2023/10/26 06:19:41;;;;;;;83.93;26.55;;;;;;;7.89;100.00;99560.06;5266805;28;20069;-70
2023/10/26 06:22:12;;;;;;;92.72;27.85;;;;;;;7.90;100.00;99559.03;5261705;28;20058;-70
2023/10/26 06:24:44;;;;;;;84.95;26.65;;;;;;;7.97;100.00;99562.63;5262418;28;20051;-70
2023/10/26 06:27:14;;;;;;;102.90;27.95;;;;;;;8.00;100.00;99548.09;5265444;28;20392;-71
2023/10/26 06:29:45;;;;;;;97.90;28.08;;;;;;;8.03;100.00;99564.59;5266727;28;20022;-70
2023/10/26 06:32:15;;;;;;;124.40;27.08;;;;;;;8.05;100.00;99559.06;5263302;28;20071;-70
2023/10/26 06:34:45;;;;;;;125.72;27.83;;;;;;;8.05;100.00;99562.56;5264743;28;20032;-70
2023/10/26 06:37:16;;;;;;;115.53;26.02;;;;;;;8.04;100.00;99552.91;5267400;28;20024;-70
2023/10/26 06:39:47;;;;;;;92.90;26.00;;;;;;;8.08;100.00;99552.53;5263436;28;20469;-70
2023/10/26 06:42:17;;;;;;;71.57;24.88;;;;;;;8.07;100.00;99546.34;5264084;28;20415;-70
2023/10/26 06:44:48;;;;;;;86.68;25.83;;;;;;;8.07;100.00;99561.56;5265921;28;20044;-70
2023/10/26 06:47:19;;;;;;;76.60;25.27;;;;;;;8.08;100.00;99561.38;5267200;28;20024;-70
2023/10/26 06:49:49;;;;;;;76.43;27.15;;;;;;;8.16;100.00;99555.97;5265985;28;20024;-71
2023/10/26 06:52:20;;;;;;;76.40;27.13;;;;;;;8.16;100.00;99552.47;5265093;28;20103;-70
2023/10/26 06:54:51;;;;;;;97.32;26.75;;;;;;;8.14;100.00;99558.00;5264405;28;20022;-70
2023/10/26 06:57:21;;;;;;;100.13;26.90;;;;;;;8.17;100.00;99562.13;5265608;28;20036;-71
2023/10/26 06:59:52;;;;;;;103.15;28.85;;;;;;;8.18;100.00;99558.44;5266021;28;20486;-70
2023/10/26 07:02:22;;;;;;;129.65;27.73;;;;;;;8.19;100.00;99560.94;5265325;28;23404;-70
2023/10/26 07:04:53;;;;;;;112.95;27.50;;;;;;;8.24;100.00;99560.41;5261162;28;20033;-70
2023/10/26 07:07:23;;;;;;;133.95;29.25;;;;;;;8.30;100.00;99557.00;5263374;28;20024;-70
2023/10/26 07:09:54;;;;;;;121.15;27.48;;;;;;;8.38;100.00;99562.28;5264889;28;20047;-70
2023/10/26 07:12:25;;;;;;;108.43;25.92;;;;;;;8.44;100.00;99563.41;5263175;28;20097;-71
2023/10/26 07:14:55;;;;;;;105.25;27.33;;;;;;;8.50;100.00;99568.84;5264414;28;20081;-71
2023/10/26 07:17:26;;;;;;;130.13;28.85;;;;;;;8.62;100.00;99571.88;5264285;28;20427;-71
2023/10/26 07:19:56;;;;;;;110.50;28.10;;;;;;;8.72;100.00;99567.06;5264604;28;20086;-71
2023/10/26 07:22:26;;;;;;;116.75;27.63;;;;;;;8.79;100.00;99567.19;5264651;28;20114;-71
2023/10/26 07:24:57;;;;;;;103.75;28.83;;;;;;;8.87;100.00;99564.38;5261214;28;20112;-71
2023/10/26 07:27:28;;;;;;;95.20;27.27;;;;;;;8.94;100.00;99561.81;5264543;28;20028;-71
2023/10/26 07:29:59;;;;;;;94.18;26.95;;;;;;;9.04;100.00;99565.03;5265388;28;20366;-71
2023/10/26 07:32:30;;;;;;;104.15;29.02;;;;;;;9.13;100.00;99561.19;5264567;28;20094;-71
2023/10/26 07:35:02;;;;;;;94.82;27.60;;;;;;;9.23;100.00;99552.88;5263253;28;20479;-71
2023/10/26 07:37:32;;;;;;;81.10;27.88;;;;;;;9.38;100.00;99556.34;5263939;28;20492;-71
2023/10/26 07:40:03;;;;;;;112.00;29.58;;;;;;;9.59;100.00;99552.84;5260545;28;20035;-71
2023/10/26 07:42:34;;;;;;;77.18;26.60;;;;;;;9.76;100.00;99553.41;5253312;28;20534;-71
2023/10/26 07:45:06;;;;;;;90.78;27.42;;;;;;;9.98;100.00;99547.00;5263576;28;20032;-71
2023/10/26 07:47:37;;;;;;;68.80;26.02;;;;;;;10.02;100.00;99548.28;5263542;28;20035;-71
2023/10/26 07:50:08;;;;;;;80.25;26.67;;;;;;;10.08;100.00;99549.34;5259686;28;20397;-71
2023/10/26 07:52:38;;;;;;;69.35;27.42;;;;;;;10.04;100.00;99553.44;5262388;28;20028;-71
2023/10/26 07:55:09;;;;;;;72.35;25.55;;;;;;;10.06;100.00;99570.16;5262789;28;20031;-71
2023/10/26 07:57:41;;;;;;;85.93;25.17;;;;;;;9.93;100.00;99573.53;5262917;28;20032;-71
2023/10/26 08:00:13;;;;;;;76.13;27.02;;;;;;;9.92;100.00;99579.09;5262825;28;20051;-71
2023/10/26 08:02:43;;;;;;;75.13;26.15;;;;;;;10.00;100.00;99582.47;5262526;28;20034;-71
2023/10/26 08:05:15;;;;;;;79.82;27.88;;;;;;;10.04;100.00;99583.75;5254981;28;20032;-71
2023/10/26 08:07:47;;;;;;;78.57;27.92;;;;;;;10.15;100.00;99581.56;5261186;28;20019;-71
2023/10/26 08:10:18;;;;;;;79.95;27.38;;;;;;;10.24;100.00;99577.72;5258357;28;20035;-71
2023/10/26 08:12:52;;;;;;;85.78;28.35;;;;;;;10.28;100.00;99579.00;5262699;28;20020;-71
2023/10/26 08:15:22;;;;;;;103.57;30.73;;;;;;;10.30;100.00;99563.56;5259341;28;20483;-71
2023/10/26 08:17:53;;;;;;;74.60;28.88;;;;;;;10.35;100.00;99564.66;5260301;28;20077;-71
2023/10/26 08:20:23;;;;;;;74.68;27.23;;;;;;;10.42;100.00;99569.22;5260155;28;20027;-71
2023/10/26 08:22:54;;;;;;;73.57;27.25;;;;;;;10.45;100.00;99572.34;5259746;28;20031;-71
2023/10/26 08:25:24;;;;;;;75.22;27.83;;;;;;;10.52;100.00;99575.06;5253785;28;20042;-71
2023/10/26 08:27:55;;;;;;;67.25;26.65;;;;;;;10.56;100.00;99569.09;5265712;28;20028;-71
2023/10/26 08:30:25;;;;;;;67.45;27.30;;;;;;;10.53;100.00;99574.03;5259245;28;20080;-71
2023/10/26 08:32:56;;;;;;;71.60;28.00;;;;;;;10.49;100.00;99584.34;5257693;28;20561;-71
2023/10/26 08:35:26;;;;;;;73.53;28.92;;;;;;;10.51;100.00;99574.22;5268204;28;20756;-71
2023/10/26 08:37:57;;;;;;;70.10;26.15;;;;;;;10.47;100.00;99572.97;5259380;28;20118;-71
2023/10/26 08:40:27;;;;;;;68.10;27.58;;;;;;;10.45;100.00;99571.50;5259170;28;20044;-71
2023/10/26 08:43:00;;;;;;;62.25;27.08;;;;;;;10.42;100.00;99574.56;5258312;28;20025;-71
2023/10/26 08:45:31;;;;;;;70.18;26.08;;;;;;;10.38;100.00;99587.53;5251595;28;20460;-71
2023/10/26 08:48:03;;;;;;;59.60;25.75;;;;;;;10.32;100.00;99588.31;5253911;28;20139;-71
2023/10/26 08:50:34;;;;;;;68.95;27.05;;;;;;;10.39;100.00;99586.50;5257971;28;20020;-71
2023/10/26 08:53:04;;;;;;;72.88;27.23;;;;;;;10.50;100.00;99585.16;5252480;28;20035;-71
2023/10/26 08:55:38;;;;;;;62.53;26.58;;;;;;;10.54;100.00;99589.94;5258038;28;20025;-71
2023/10/26 08:58:09;;;;;;;68.68;28.10;;;;;;;10.70;100.00;99574.56;5256679;28;20032;-71
2023/10/26 09:00:40;;;;;;;72.80;28.95;;;;;;;10.71;100.00;99577.03;5260278;28;20114;-71
2023/10/26 09:03:11;;;;;;;67.13;27.05;;;;;;;10.78;100.00;99577.88;5259759;28;20111;-70
2023/10/26 09:05:56;;;;;;;66.10;26.73;;;;;;;10.82;100.00;99576.47;5255429;28;20034;-71
2023/10/26 09:08:28;;;;;;;63.67;25.87;;;;;;;10.90;100.00;99564.75;5256273;28;20026;-71
2023/10/26 09:11:01;;;;;;;65.65;27.63;;;;;;;10.93;100.00;99574.25;5256847;28;20302;-71
2023/10/26 09:13:33;;;;;;;61.78;25.40;;;;;;;10.91;100.00;99555.66;5260291;28;20469;-71
2023/10/26 09:16:04;;;;;;;71.13;26.80;;;;;;;10.99;100.00;99547.44;5260346;28;20035;-70
2023/10/26 09:18:36;;;;;;;70.85;25.67;;;;;;;10.95;100.00;99548.88;5261667;28;20031;-71
2023/10/26 09:21:08;;;;;;;62.75;25.90;;;;;;;11.07;100.00;99543.75;5257877;28;20016;-70
2023/10/26 09:23:40;;;;;;;59.13;25.05;;;;;;;11.02;100.00;99536.31;5258368;28;20447;-71
2023/10/26 09:26:10;;;;;;;57.63;23.70;;;;;;;11.10;100.00;99535.31;5264809;28;20023;-71
2023/10/26 09:28:52;;;;;;;53.80;23.60;;;;;;;11.12;100.00;99517.97;5260666;28;20031;-71
2023/10/26 09:31:24;;;;;;;51.72;22.45;;;;;;;11.18;100.00;99521.69;5266299;28;20028;-70
2023/10/26 09:33:54;;;;;;;55.95;24.27;;;;;;;11.22;100.00;99527.50;5265668;28;20027;-71
2023/10/26 09:36:26;;;;;;;55.55;23.05;;;;;;;11.28;100.00;99522.13;5267076;28;20052;-70
2023/10/26 09:38:56;;;;;;;57.00;21.60;;;;;;;11.35;100.00;99523.00;5263404;28;20020;-70
2023/10/26 09:41:27;;;;;;;47.75;22.13;;;;;;;11.33;100.00;99516.97;5260991;28;20459;-70
2023/10/26 09:43:58;;;;;;;56.70;23.70;;;;;;;11.47;100.00;99514.31;5267783;28;20023;-71
2023/10/26 09:46:28;;;;;;;47.92;21.73;;;;;;;11.57;100.00;99509.38;5264265;28;20096;-70
2023/10/26 09:48:59;;;;;;;54.15;22.48;;;;;;;11.65;100.00;99499.28;5264958;28;20560;-70
2023/10/26 09:51:29;;;;;;;43.60;20.65;;;;;;;11.54;100.00;99499.03;5266297;28;20112;-70
2023/10/26 09:54:03;;;;;;;49.88;21.95;;;;;;;11.56;100.00;99494.31;5268556;28;20035;-70
2023/10/26 09:56:36;;;;;;;49.78;22.15;;;;;;;11.61;100.00;99487.28;5260617;28;20507;-70
2023/10/26 09:59:07;;;;;;;44.40;21.20;;;;;;;11.62;100.00;99486.25;5268045;28;20080;-70
2023/10/26 10:01:40;;;;;;;48.88;21.35;;;;;;;11.67;100.00;99483.75;5267506;28;20023;-70
2023/10/26 10:04:11;;;;;;;48.22;21.30;;;;;;;11.73;100.00;99490.16;5260755;28;20032;-70
2023/10/26 10:06:50;;;;;;;38.15;18.70;;;;;;;11.82;100.00;99509.63;5267444;28;20035;-70
2023/10/26 10:09:23;;;;;;;44.30;19.42;;;;;;;11.87;100.00;99504.47;5263130;28;20059;-70
2023/10/26 10:12:13;;;;;;;38.28;18.42;;;;;;;11.95;100.00;99503.41;5260512;28;20031;-70
2023/10/26 10:14:47;;;;;;;37.58;18.08;;;;;;;11.94;100.00;99510.66;5263832;28;20066;-70
2023/10/26 10:17:22;;;;;;;37.50;17.88;;;;;;;11.89;100.00;99515.81;5265837;28;20108;-70
2023/10/26 10:20:14;;;;;;;34.72;17.83;;;;;;;12.03;100.00;99522.03;5264330;28;20490;-70
2023/10/26 10:22:45;;;;;;;30.17;15.68;;;;;;;12.07;100.00;99520.56;5262060;28;20036;-71
2023/10/26 10:25:18;;;;;;;29.98;14.00;;;;;;;12.01;100.00;99535.69;5253151;28;20024;-70
2023/10/26 10:27:48;;;;;;;28.77;14.80;;;;;;;12.06;100.00;99525.13;5261497;28;20380;-70
2023/10/26 10:30:21;;;;;;;26.50;13.40;;;;;;;12.15;100.00;99515.81;5263806;28;20043;-70
2023/10/26 10:32:52;;;;;;;29.45;14.95;;;;;;;12.27;100.00;99520.56;5251388;28;20028;-70
2023/10/26 10:35:31;;;;;;;27.75;14.02;;;;;;;12.40;100.00;99515.16;5256066;28;20389;-72
2023/10/26 10:38:12;;;;;;;27.15;13.75;;;;;;;12.45;100.00;99528.81;5266926;28;20561;-71
2023/10/26 10:40:54;;;;;;;26.85;12.70;;;;;;;12.53;100.00;99533.94;5261352;28;20039;-72
2023/10/26 10:43:33;;;;;;;24.65;12.73;;;;;;;12.68;100.00;99525.63;5262295;28;20116;-72
2023/10/26 10:46:14;;;;;;;21.08;11.88;;;;;;;12.69;100.00;99524.56;5262824;28;20112;-72
2023/10/26 10:49:03;;;;;;;25.17;12.57;;;;;;;12.76;100.00;99519.19;5261435;28;20024;-72
2023/10/26 10:51:39;;;;;;;21.35;11.90;;;;;;;12.85;100.00;99516.06;5263589;28;20063;-71
2023/10/26 10:54:11;;;;;;;;;;;;;;;12.93;100.00;99509.59;5262178;28;20024;-72
2023/10/26 10:56:44;;;;;;;20.95;12.50;;;;;;;13.07;100.00;99515.75;5263439;28;19912;-70
2023/10/26 10:59:25;;;;;;;25.00;12.48;;;;;;;13.08;100.00;99512.81;5266563;28;20827;-70
2023/10/26 11:02:08;;;;;;;20.08;11.57;;;;;;;12.85;100.00;99513.38;5268957;28;20034;-70
2023/10/26 11:04:57;;;;;;;21.02;11.98;;;;;;;12.68;100.00;99521.06;5257740;28;20011;-70
2023/10/26 11:07:30;;;;;;;22.27;11.52;;;;;;;12.67;100.00;99513.22;5264903;28;20024;-70
2023/10/26 11:10:02;;;;;;;21.95;11.32;;;;;;;12.70;100.00;99513.63;5262096;28;20065;-70
2023/10/26 11:12:33;;;;;;;19.73;11.45;;;;;;;12.76;100.00;99513.81;5264477;28;20028;-70
2023/10/26 11:15:04;;;;;;;20.88;10.50;;;;;;;12.85;100.00;99507.13;5258073;28;20020;-70
2023/10/26 11:17:38;;;;;;;19.27;11.40;;;;;;;12.98;100.00;99498.19;5262289;28;20108;-70
2023/10/26 11:20:39;;;;;;;21.73;10.95;;;;;;;12.99;100.00;99505.22;5261524;28;20039;-70
2023/10/26 11:23:11;;;;;;;19.58;10.38;;;;;;;13.01;100.00;99500.47;5254154;28;20095;-70
2023/10/26 11:25:44;;;;;;;18.30;10.25;;;;;;;13.14;100.00;99503.88;5264744;28;20019;-70
2023/10/26 11:28:15;;;;;;;21.08;10.75;;;;;;;13.30;100.00;99505.28;5265641;28;20085;-70
2023/10/26 11:30:49;;;;;;;18.25;10.02;;;;;;;13.39;100.00;99503.97;5262640;28;20431;-70